Terminal Aerodrome Forecast
Issued by NWS

Home | Current Version | Previous Version | Graphics & Text | Print | Product List | Glossary On
Versions: 1 2 3 4 5 6 7 8 9 10 11 12 13 14 15 16 17 18 19 20 21 22 23 24 25
000
FTUS43 KFGF 081120
TAFBJI
TAF
KBJI 081120Z 0812/0912 31005KT P6SM BKN011
     FM081900 28012KT P6SM -SHSN OVC008
     FM082300 31016G24KT P6SM OVC020
     FM090800 33011KT P6SM BKN025
     FM091000 33011KT P6SM BKN100=

USA.gov is the U.S. government's official web portal to all federal, state and local government web resources and services.